Creve Coeur, Missouri
Current Conditions -  °F | °C
As of 2:51 AM on Sunday 23 Nov 2014 (Local Time) from KSTL Reporting Station
Overcast Overcast  
Wind Chill: 56°   Ceiling: 10000
Heat Index: 56°   Visibility: 10mi
Dew Point: 44°   Wind: 12mph
Humidity: 64%   Direction: 170°S
Pressure: 29.79"   Gusts: 18mph
Location:  38.66°N, 90.44°W
Report Text: KSTL 230851Z 17010G16KT 10SM OVC100 13/07 A2979 RMK AO2 SLP085 T01330067 56023
Loading
Personal Weather Stations






























Interactive Weather Map New forecast layout! Learn more

10-Day Weather Forecast

Advertisements
Track Severe Weather on mobile